sensor_id;sensor_type;location;lat;lon;timestamp;P1;durP1;ratioP1;P2;durP2;ratioP2
19519;SDS011;9904;52.246;20.898;2023-06-26T00:01:28;11.53;;;7.30;;
19519;SDS011;9904;52.246;20.898;2023-06-26T00:03:56;11.13;;;7.20;;
19519;SDS011;9904;52.246;20.898;2023-06-26T00:06:23;11.00;;;6.50;;
19519;SDS011;9904;52.246;20.898;2023-06-26T00:08:54;14.30;;;6.87;;
19519;SDS011;9904;52.246;20.898;2023-06-26T00:11:21;13.70;;;6.97;;
19519;SDS011;9904;52.246;20.898;2023-06-26T00:13:48;11.60;;;6.23;;
19519;SDS011;9904;52.246;20.898;2023-06-26T00:16:14;12.33;;;6.37;;
19519;SDS011;9904;52.246;20.898;2023-06-26T00:18:41;13.00;;;6.60;;
19519;SDS011;9904;52.246;20.898;2023-06-26T00:21:08;12.03;;;6.27;;
19519;SDS011;9904;52.246;20.898;2023-06-26T00:23:35;12.30;;;7.57;;
19519;SDS011;9904;52.246;20.898;2023-06-26T00:26:05;11.13;;;6.73;;
19519;SDS011;9904;52.246;20.898;2023-06-26T00:28:32;9.83;;;6.47;;
19519;SDS011;9904;52.246;20.898;2023-06-26T00:30:59;16.30;;;7.20;;
19519;SDS011;9904;52.246;20.898;2023-06-26T00:33:26;13.03;;;6.93;;
19519;SDS011;9904;52.246;20.898;2023-06-26T00:35:53;14.07;;;7.20;;
19519;SDS011;9904;52.246;20.898;2023-06-26T00:38:19;9.93;;;6.87;;
19519;SDS011;9904;52.246;20.898;2023-06-26T00:40:46;14.27;;;7.33;;
19519;SDS011;9904;52.246;20.898;2023-06-26T00:43:13;11.03;;;7.63;;
19519;SDS011;9904;52.246;20.898;2023-06-26T00:45:39;12.77;;;6.83;;
19519;SDS011;9904;52.246;20.898;2023-06-26T00:48:09;13.70;;;7.30;;
19519;SDS011;9904;52.246;20.898;2023-06-26T00:50:38;13.97;;;6.87;;
19519;SDS011;9904;52.246;20.898;2023-06-26T00:53:05;12.57;;;6.73;;
19519;SDS011;9904;52.246;20.898;2023-06-26T00:55:32;15.73;;;7.00;;
19519;SDS011;9904;52.246;20.898;2023-06-26T00:57:58;11.87;;;6.87;;
19519;SDS011;9904;52.246;20.898;2023-06-26T01:00:25;18.07;;;8.53;;
19519;SDS011;9904;52.246;20.898;2023-06-26T01:02:52;13.57;;;7.47;;
19519;SDS011;9904;52.246;20.898;2023-06-26T01:05:19;11.33;;;7.20;;
19519;SDS011;9904;52.246;20.898;2023-06-26T01:07:49;13.83;;;7.43;;
19519;SDS011;9904;52.246;20.898;2023-06-26T01:10:18;13.00;;;6.93;;
19519;SDS011;9904;52.246;20.898;2023-06-26T01:12:45;10.60;;;7.30;;
19519;SDS011;9904;52.246;20.898;2023-06-26T01:15:12;16.70;;;8.13;;
19519;SDS011;9904;52.246;20.898;2023-06-26T01:17:38;11.93;;;7.10;;
19519;SDS011;9904;52.246;20.898;2023-06-26T01:20:06;13.27;;;7.80;;
19519;SDS011;9904;52.246;20.898;2023-06-26T01:22:45;11.60;;;7.47;;
19519;SDS011;9904;52.246;20.898;2023-06-26T01:28:06;16.20;;;7.67;;
19519;SDS011;9904;52.246;20.898;2023-06-26T01:30:34;11.83;;;7.33;;
19519;SDS011;9904;52.246;20.898;2023-06-26T01:33:11;23.53;;;8.47;;
19519;SDS011;9904;52.246;20.898;2023-06-26T01:35:39;19.63;;;8.93;;
19519;SDS011;9904;52.246;20.898;2023-06-26T01:38:19;15.83;;;7.83;;
19519;SDS011;9904;52.246;20.898;2023-06-26T01:40:46;16.47;;;7.47;;
19519;SDS011;9904;52.246;20.898;2023-06-26T01:43:15;17.10;;;8.10;;
19519;SDS011;9904;52.246;20.898;2023-06-26T01:45:48;17.80;;;7.50;;
19519;SDS011;9904;52.246;20.898;2023-06-26T01:48:18;22.37;;;8.50;;
19519;SDS011;9904;52.246;20.898;2023-06-26T01:50:47;19.13;;;8.00;;
19519;SDS011;9904;52.246;20.898;2023-06-26T01:53:18;19.97;;;7.97;;
19519;SDS011;9904;52.246;20.898;2023-06-26T01:55:48;11.87;;;7.17;;
19519;SDS011;9904;52.246;20.898;2023-06-26T01:58:18;12.17;;;7.50;;
19519;SDS011;9904;52.246;20.898;2023-06-26T02:00:47;17.53;;;7.30;;
19519;SDS011;9904;52.246;20.898;2023-06-26T02:03:13;18.40;;;7.87;;
19519;SDS011;9904;52.246;20.898;2023-06-26T02:05:40;19.40;;;7.37;;
19519;SDS011;9904;52.246;20.898;2023-06-26T02:08:08;19.73;;;8.03;;
19519;SDS011;9904;52.246;20.898;2023-06-26T02:10:36;21.27;;;9.17;;
19519;SDS011;9904;52.246;20.898;2023-06-26T02:13:03;24.13;;;8.47;;
19519;SDS011;9904;52.246;20.898;2023-06-26T02:15:29;29.23;;;9.27;;
19519;SDS011;9904;52.246;20.898;2023-06-26T02:17:56;24.17;;;8.80;;
19519;SDS011;9904;52.246;20.898;2023-06-26T02:20:23;29.13;;;9.53;;
19519;SDS011;9904;52.246;20.898;2023-06-26T02:22:49;19.93;;;8.00;;
19519;SDS011;9904;52.246;20.898;2023-06-26T02:25:17;24.77;;;9.60;;
19519;SDS011;9904;52.246;20.898;2023-06-26T02:27:44;21.10;;;8.90;;
19519;SDS011;9904;52.246;20.898;2023-06-26T02:30:10;20.50;;;8.33;;
19519;SDS011;9904;52.246;20.898;2023-06-26T02:32:37;16.77;;;7.90;;
19519;SDS011;9904;52.246;20.898;2023-06-26T02:35:04;24.00;;;8.13;;
19519;SDS011;9904;52.246;20.898;2023-06-26T02:37:31;17.90;;;8.27;;
19519;SDS011;9904;52.246;20.898;2023-06-26T02:39:58;16.70;;;7.23;;
19519;SDS011;9904;52.246;20.898;2023-06-26T02:42:24;17.27;;;8.17;;
19519;SDS011;9904;52.246;20.898;2023-06-26T02:44:51;18.67;;;8.87;;
19519;SDS011;9904;52.246;20.898;2023-06-26T02:47:18;22.00;;;9.13;;
19519;SDS011;9904;52.246;20.898;2023-06-26T02:49:45;19.17;;;8.47;;
19519;SDS011;9904;52.246;20.898;2023-06-26T02:52:11;18.27;;;8.67;;
19519;SDS011;9904;52.246;20.898;2023-06-26T02:54:38;17.33;;;7.67;;
19519;SDS011;9904;52.246;20.898;2023-06-26T02:57:04;19.23;;;7.70;;
19519;SDS011;9904;52.246;20.898;2023-06-26T02:59:31;24.33;;;8.60;;
19519;SDS011;9904;52.246;20.898;2023-06-26T03:01:58;17.17;;;8.23;;
19519;SDS011;9904;52.246;20.898;2023-06-26T03:04:25;20.27;;;8.73;;
19519;SDS011;9904;52.246;20.898;2023-06-26T03:06:52;13.97;;;7.40;;
19519;SDS011;9904;52.246;20.898;2023-06-26T03:09:18;19.30;;;8.17;;
19519;SDS011;9904;52.246;20.898;2023-06-26T03:11:45;16.70;;;8.63;;
19519;SDS011;9904;52.246;20.898;2023-06-26T03:14:12;16.70;;;8.47;;
19519;SDS011;9904;52.246;20.898;2023-06-26T03:16:38;22.40;;;9.10;;
19519;SDS011;9904;52.246;20.898;2023-06-26T03:19:05;21.10;;;9.17;;
19519;SDS011;9904;52.246;20.898;2023-06-26T03:21:32;19.47;;;8.80;;
19519;SDS011;9904;52.246;20.898;2023-06-26T03:23:59;18.73;;;8.53;;
19519;SDS011;9904;52.246;20.898;2023-06-26T03:26:25;21.77;;;8.53;;
19519;SDS011;9904;52.246;20.898;2023-06-26T03:28:54;16.57;;;8.87;;
19519;SDS011;9904;52.246;20.898;2023-06-26T03:31:21;22.57;;;9.80;;
19519;SDS011;9904;52.246;20.898;2023-06-26T03:33:47;21.07;;;9.97;;
19519;SDS011;9904;52.246;20.898;2023-06-26T03:36:14;20.87;;;9.57;;
19519;SDS011;9904;52.246;20.898;2023-06-26T03:38:41;22.17;;;10.07;;
19519;SDS011;9904;52.246;20.898;2023-06-26T03:41:07;23.43;;;9.07;;
19519;SDS011;9904;52.246;20.898;2023-06-26T03:43:35;16.30;;;8.80;;
19519;SDS011;9904;52.246;20.898;2023-06-26T03:46:01;20.53;;;9.33;;
19519;SDS011;9904;52.246;20.898;2023-06-26T03:48:28;17.60;;;9.13;;
19519;SDS011;9904;52.246;20.898;2023-06-26T03:50:55;19.57;;;9.03;;
19519;SDS011;9904;52.246;20.898;2023-06-26T03:53:21;19.33;;;9.97;;
19519;SDS011;9904;52.246;20.898;2023-06-26T03:55:48;21.47;;;10.10;;
19519;SDS011;9904;52.246;20.898;2023-06-26T03:58:15;19.47;;;10.50;;
19519;SDS011;9904;52.246;20.898;2023-06-26T04:00:41;17.90;;;10.03;;
19519;SDS011;9904;52.246;20.898;2023-06-26T04:03:08;21.13;;;10.33;;
19519;SDS011;9904;52.246;20.898;2023-06-26T04:05:36;18.27;;;9.93;;
19519;SDS011;9904;52.246;20.898;2023-06-26T04:08:03;23.27;;;10.30;;
19519;SDS011;9904;52.246;20.898;2023-06-26T04:10:30;17.57;;;9.67;;
19519;SDS011;9904;52.246;20.898;2023-06-26T04:12:56;19.37;;;9.03;;
19519;SDS011;9904;52.246;20.898;2023-06-26T04:15:23;19.50;;;10.13;;
19519;SDS011;9904;52.246;20.898;2023-06-26T04:17:50;20.57;;;10.10;;
19519;SDS011;9904;52.246;20.898;2023-06-26T04:20:16;19.67;;;9.93;;
19519;SDS011;9904;52.246;20.898;2023-06-26T04:22:43;17.70;;;9.50;;
19519;SDS011;9904;52.246;20.898;2023-06-26T04:25:10;17.80;;;9.40;;
19519;SDS011;9904;52.246;20.898;2023-06-26T04:27:38;20.73;;;8.67;;
19519;SDS011;9904;52.246;20.898;2023-06-26T04:30:07;19.03;;;9.73;;
19519;SDS011;9904;52.246;20.898;2023-06-26T04:32:34;16.60;;;8.90;;
19519;SDS011;9904;52.246;20.898;2023-06-26T04:35:01;20.63;;;9.33;;
19519;SDS011;9904;52.246;20.898;2023-06-26T04:37:29;17.13;;;8.90;;
19519;SDS011;9904;52.246;20.898;2023-06-26T04:39:55;17.20;;;9.50;;
19519;SDS011;9904;52.246;20.898;2023-06-26T04:42:22;14.10;;;7.97;;
19519;SDS011;9904;52.246;20.898;2023-06-26T04:44:49;16.93;;;8.40;;
19519;SDS011;9904;52.246;20.898;2023-06-26T04:47:15;16.10;;;8.53;;
19519;SDS011;9904;52.246;20.898;2023-06-26T04:49:43;18.87;;;8.90;;
19519;SDS011;9904;52.246;20.898;2023-06-26T04:52:12;14.47;;;8.37;;
19519;SDS011;9904;52.246;20.898;2023-06-26T04:54:39;18.90;;;9.00;;
19519;SDS011;9904;52.246;20.898;2023-06-26T04:57:06;18.43;;;8.83;;
19519;SDS011;9904;52.246;20.898;2023-06-26T04:59:33;16.77;;;8.47;;
19519;SDS011;9904;52.246;20.898;2023-06-26T05:01:59;13.70;;;8.37;;
19519;SDS011;9904;52.246;20.898;2023-06-26T05:04:26;20.00;;;8.83;;
19519;SDS011;9904;52.246;20.898;2023-06-26T05:06:53;19.87;;;8.63;;
19519;SDS011;9904;52.246;20.898;2023-06-26T05:09:19;14.90;;;8.10;;
19519;SDS011;9904;52.246;20.898;2023-06-26T05:11:46;15.77;;;8.63;;
19519;SDS011;9904;52.246;20.898;2023-06-26T05:14:13;14.97;;;7.73;;
19519;SDS011;9904;52.246;20.898;2023-06-26T05:16:40;15.43;;;8.17;;
19519;SDS011;9904;52.246;20.898;2023-06-26T05:19:06;15.87;;;9.17;;
19519;SDS011;9904;52.246;20.898;2023-06-26T05:21:33;16.20;;;8.33;;
19519;SDS011;9904;52.246;20.898;2023-06-26T05:24:01;12.53;;;7.67;;
19519;SDS011;9904;52.246;20.898;2023-06-26T05:26:29;15.47;;;8.13;;
19519;SDS011;9904;52.246;20.898;2023-06-26T05:28:55;15.17;;;8.57;;
19519;SDS011;9904;52.246;20.898;2023-06-26T05:31:22;14.17;;;8.03;;
19519;SDS011;9904;52.246;20.898;2023-06-26T05:33:49;13.43;;;7.07;;
19519;SDS011;9904;52.246;20.898;2023-06-26T05:36:17;18.87;;;8.80;;
19519;SDS011;9904;52.246;20.898;2023-06-26T05:38:44;16.13;;;7.33;;
19519;SDS011;9904;52.246;20.898;2023-06-26T05:41:11;15.33;;;7.57;;
19519;SDS011;9904;52.246;20.898;2023-06-26T05:43:38;17.23;;;7.50;;
19519;SDS011;9904;52.246;20.898;2023-06-26T05:46:05;18.47;;;8.40;;
19519;SDS011;9904;52.246;20.898;2023-06-26T05:48:31;25.30;;;8.40;;
19519;SDS011;9904;52.246;20.898;2023-06-26T05:50:58;19.43;;;8.10;;
19519;SDS011;9904;52.246;20.898;2023-06-26T05:53:25;16.83;;;8.17;;
19519;SDS011;9904;52.246;20.898;2023-06-26T05:55:52;17.30;;;7.53;;
19519;SDS011;9904;52.246;20.898;2023-06-26T05:58:19;13.75;;;7.57;;
19519;SDS011;9904;52.246;20.898;2023-06-26T06:00:46;15.07;;;7.40;;
19519;SDS011;9904;52.246;20.898;2023-06-26T06:03:13;12.85;;;6.47;;
19519;SDS011;9904;52.246;20.898;2023-06-26T06:05:40;16.30;;;6.93;;
19519;SDS011;9904;52.246;20.898;2023-06-26T06:08:06;12.93;;;6.97;;
19519;SDS011;9904;52.246;20.898;2023-06-26T06:10:33;13.02;;;6.47;;
19519;SDS011;9904;52.246;20.898;2023-06-26T06:13:00;10.50;;;6.07;;
19519;SDS011;9904;52.246;20.898;2023-06-26T06:15:27;8.68;;;5.38;;
19519;SDS011;9904;52.246;20.898;2023-06-26T06:17:56;13.32;;;6.82;;
19519;SDS011;9904;52.246;20.898;2023-06-26T06:20:22;11.63;;;6.07;;
19519;SDS011;9904;52.246;20.898;2023-06-26T06:22:49;9.82;;;4.70;;
19519;SDS011;9904;52.246;20.898;2023-06-26T06:25:16;10.68;;;4.65;;
19519;SDS011;9904;52.246;20.898;2023-06-26T06:27:42;7.18;;;4.55;;
19519;SDS011;9904;52.246;20.898;2023-06-26T06:30:10;11.65;;;5.05;;
19519;SDS011;9904;52.246;20.898;2023-06-26T06:32:37;12.48;;;5.43;;
19519;SDS011;9904;52.246;20.898;2023-06-26T06:35:04;11.40;;;5.13;;
19519;SDS011;9904;52.246;20.898;2023-06-26T06:37:37;8.02;;;4.32;;
19519;SDS011;9904;52.246;20.898;2023-06-26T06:40:08;9.05;;;4.65;;
19519;SDS011;9904;52.246;20.898;2023-06-26T06:42:37;12.45;;;5.57;;
19519;SDS011;9904;52.246;20.898;2023-06-26T06:45:04;9.20;;;5.15;;
19519;SDS011;9904;52.246;20.898;2023-06-26T06:47:32;6.78;;;4.60;;
19519;SDS011;9904;52.246;20.898;2023-06-26T06:49:59;7.97;;;4.50;;
19519;SDS011;9904;52.246;20.898;2023-06-26T06:52:38;10.25;;;4.63;;
19519;SDS011;9904;52.246;20.898;2023-06-26T06:55:06;8.68;;;5.03;;
19519;SDS011;9904;52.246;20.898;2023-06-26T06:57:36;9.73;;;4.80;;
19519;SDS011;9904;52.246;20.898;2023-06-26T07:00:06;6.65;;;4.95;;
19519;SDS011;9904;52.246;20.898;2023-06-26T07:02:36;6.97;;;4.88;;
19519;SDS011;9904;52.246;20.898;2023-06-26T07:05:06;8.40;;;4.70;;
19519;SDS011;9904;52.246;20.898;2023-06-26T07:07:33;9.45;;;4.70;;
19519;SDS011;9904;52.246;20.898;2023-06-26T07:10:02;12.70;;;4.78;;
19519;SDS011;9904;52.246;20.898;2023-06-26T07:12:30;8.30;;;4.93;;
19519;SDS011;9904;52.246;20.898;2023-06-26T07:14:58;11.57;;;4.90;;
19519;SDS011;9904;52.246;20.898;2023-06-26T07:17:24;7.13;;;4.53;;
19519;SDS011;9904;52.246;20.898;2023-06-26T07:19:51;7.75;;;5.00;;
19519;SDS011;9904;52.246;20.898;2023-06-26T07:22:18;8.38;;;4.85;;
19519;SDS011;9904;52.246;20.898;2023-06-26T07:24:47;7.47;;;4.35;;
19519;SDS011;9904;52.246;20.898;2023-06-26T07:27:15;9.13;;;4.83;;
19519;SDS011;9904;52.246;20.898;2023-06-26T07:29:42;7.32;;;4.43;;
19519;SDS011;9904;52.246;20.898;2023-06-26T07:32:10;7.90;;;4.20;;
19519;SDS011;9904;52.246;20.898;2023-06-26T07:34:40;10.63;;;4.45;;
19519;SDS011;9904;52.246;20.898;2023-06-26T07:37:07;8.95;;;4.50;;
19519;SDS011;9904;52.246;20.898;2023-06-26T07:39:34;6.88;;;4.22;;
19519;SDS011;9904;52.246;20.898;2023-06-26T07:42:00;7.93;;;4.67;;
19519;SDS011;9904;52.246;20.898;2023-06-26T07:44:27;7.03;;;4.70;;
19519;SDS011;9904;52.246;20.898;2023-06-26T07:46:54;12.05;;;4.38;;
19519;SDS011;9904;52.246;20.898;2023-06-26T07:49:20;12.00;;;5.18;;
19519;SDS011;9904;52.246;20.898;2023-06-26T07:51:47;10.18;;;4.38;;
19519;SDS011;9904;52.246;20.898;2023-06-26T07:54:14;8.87;;;5.30;;
19519;SDS011;9904;52.246;20.898;2023-06-26T07:56:57;9.10;;;4.68;;
19519;SDS011;9904;52.246;20.898;2023-06-26T07:59:26;9.48;;;4.80;;
19519;SDS011;9904;52.246;20.898;2023-06-26T08:01:54;10.43;;;4.60;;
19519;SDS011;9904;52.246;20.898;2023-06-26T08:04:23;9.45;;;4.20;;
19519;SDS011;9904;52.246;20.898;2023-06-26T08:06:51;7.60;;;4.18;;
19519;SDS011;9904;52.246;20.898;2023-06-26T08:09:20;9.23;;;4.47;;
19519;SDS011;9904;52.246;20.898;2023-06-26T08:11:47;9.80;;;5.05;;
19519;SDS011;9904;52.246;20.898;2023-06-26T08:14:15;6.85;;;4.32;;
19519;SDS011;9904;52.246;20.898;2023-06-26T08:16:41;5.43;;;3.80;;
19519;SDS011;9904;52.246;20.898;2023-06-26T08:19:09;6.90;;;3.87;;
19519;SDS011;9904;52.246;20.898;2023-06-26T08:21:40;6.15;;;3.92;;
19519;SDS011;9904;52.246;20.898;2023-06-26T08:24:07;14.85;;;4.88;;
19519;SDS011;9904;52.246;20.898;2023-06-26T08:26:34;7.00;;;3.65;;
19519;SDS011;9904;52.246;20.898;2023-06-26T08:29:00;7.57;;;3.95;;
19519;SDS011;9904;52.246;20.898;2023-06-26T08:31:37;10.00;;;4.03;;
19519;SDS011;9904;52.246;20.898;2023-06-26T08:34:05;8.27;;;4.65;;
19519;SDS011;9904;52.246;20.898;2023-06-26T08:36:32;7.43;;;4.47;;
19519;SDS011;9904;52.246;20.898;2023-06-26T08:38:58;5.38;;;3.83;;
19519;SDS011;9904;52.246;20.898;2023-06-26T08:41:25;7.00;;;3.50;;
19519;SDS011;9904;52.246;20.898;2023-06-26T08:43:52;4.47;;;3.13;;
19519;SDS011;9904;52.246;20.898;2023-06-26T08:46:19;5.60;;;3.42;;
19519;SDS011;9904;52.246;20.898;2023-06-26T08:48:51;7.78;;;3.92;;
19519;SDS011;9904;52.246;20.898;2023-06-26T08:51:27;5.80;;;3.58;;
19519;SDS011;9904;52.246;20.898;2023-06-26T08:54:00;7.13;;;4.40;;
19519;SDS011;9904;52.246;20.898;2023-06-26T08:56:28;7.05;;;4.30;;
19519;SDS011;9904;52.246;20.898;2023-06-26T08:59:04;6.37;;;4.40;;
19519;SDS011;9904;52.246;20.898;2023-06-26T09:01:31;5.33;;;4.10;;
19519;SDS011;9904;52.246;20.898;2023-06-26T09:03:58;6.78;;;4.20;;
19519;SDS011;9904;52.246;20.898;2023-06-26T09:06:25;6.47;;;3.83;;
19519;SDS011;9904;52.246;20.898;2023-06-26T09:08:51;7.30;;;4.07;;
19519;SDS011;9904;52.246;20.898;2023-06-26T09:11:18;7.03;;;3.50;;
19519;SDS011;9904;52.246;20.898;2023-06-26T09:13:45;7.23;;;4.20;;
19519;SDS011;9904;52.246;20.898;2023-06-26T09:16:14;10.10;;;3.87;;
19519;SDS011;9904;52.246;20.898;2023-06-26T09:18:41;5.57;;;3.70;;
19519;SDS011;9904;52.246;20.898;2023-06-26T09:21:09;6.13;;;3.77;;
19519;SDS011;9904;52.246;20.898;2023-06-26T09:23:39;6.82;;;3.90;;
19519;SDS011;9904;52.246;20.898;2023-06-26T09:26:06;10.70;;;3.87;;
19519;SDS011;9904;52.246;20.898;2023-06-26T09:28:33;4.33;;;3.43;;
19519;SDS011;9904;52.246;20.898;2023-06-26T09:31:06;8.37;;;3.80;;
19519;SDS011;9904;52.246;20.898;2023-06-26T09:33:35;4.40;;;3.60;;
19519;SDS011;9904;52.246;20.898;2023-06-26T09:36:26;7.23;;;3.93;;
19519;SDS011;9904;52.246;20.898;2023-06-26T09:38:53;8.97;;;3.93;;
19519;SDS011;9904;52.246;20.898;2023-06-26T09:41:20;9.40;;;3.70;;
19519;SDS011;9904;52.246;20.898;2023-06-26T09:43:50;7.27;;;3.53;;
19519;SDS011;9904;52.246;20.898;2023-06-26T09:48:50;7.77;;;3.53;;
19519;SDS011;9904;52.246;20.898;2023-06-26T09:51:26;6.30;;;3.72;;
19519;SDS011;9904;52.246;20.898;2023-06-26T09:53:55;4.35;;;3.13;;
19519;SDS011;9904;52.246;20.898;2023-06-26T09:56:22;6.73;;;3.33;;
19519;SDS011;9904;52.246;20.898;2023-06-26T09:58:49;6.37;;;3.13;;
19519;SDS011;9904;52.246;20.898;2023-06-26T10:01:17;6.03;;;3.33;;
19519;SDS011;9904;52.246;20.898;2023-06-26T10:03:45;6.55;;;3.63;;
19519;SDS011;9904;52.246;20.898;2023-06-26T10:06:11;8.20;;;3.40;;
19519;SDS011;9904;52.246;20.898;2023-06-26T10:08:39;4.90;;;3.27;;
19519;SDS011;9904;52.246;20.898;2023-06-26T10:11:11;6.63;;;3.13;;
19519;SDS011;9904;52.246;20.898;2023-06-26T10:13:42;8.03;;;3.03;;
19519;SDS011;9904;52.246;20.898;2023-06-26T10:16:12;5.13;;;3.77;;
19519;SDS011;9904;52.246;20.898;2023-06-26T10:18:39;6.80;;;3.23;;
19519;SDS011;9904;52.246;20.898;2023-06-26T10:21:06;10.43;;;3.90;;
19519;SDS011;9904;52.246;20.898;2023-06-26T10:23:34;6.13;;;3.40;;
19519;SDS011;9904;52.246;20.898;2023-06-26T10:26:03;7.83;;;3.40;;
19519;SDS011;9904;52.246;20.898;2023-06-26T10:28:30;7.10;;;3.27;;
19519;SDS011;9904;52.246;20.898;2023-06-26T10:30:58;9.13;;;3.60;;
19519;SDS011;9904;52.246;20.898;2023-06-26T10:33:25;5.33;;;3.30;;
19519;SDS011;9904;52.246;20.898;2023-06-26T10:35:52;4.83;;;3.60;;
19519;SDS011;9904;52.246;20.898;2023-06-26T10:38:19;5.93;;;3.37;;
19519;SDS011;9904;52.246;20.898;2023-06-26T10:40:46;9.17;;;3.43;;
19519;SDS011;9904;52.246;20.898;2023-06-26T10:43:15;5.27;;;3.37;;
19519;SDS011;9904;52.246;20.898;2023-06-26T10:45:43;5.20;;;3.27;;
19519;SDS011;9904;52.246;20.898;2023-06-26T10:48:19;9.77;;;3.10;;
19519;SDS011;9904;52.246;20.898;2023-06-26T10:50:49;5.32;;;3.15;;
19519;SDS011;9904;52.246;20.898;2023-06-26T10:55:51;7.30;;;3.40;;
19519;SDS011;9904;52.246;20.898;2023-06-26T10:58:27;8.35;;;3.58;;
19519;SDS011;9904;52.246;20.898;2023-06-26T11:03:41;5.60;;;3.30;;
19519;SDS011;9904;52.246;20.898;2023-06-26T11:06:11;7.35;;;3.40;;
19519;SDS011;9904;52.246;20.898;2023-06-26T11:08:48;5.43;;;3.40;;
19519;SDS011;9904;52.246;20.898;2023-06-26T11:11:21;7.80;;;3.30;;
19519;SDS011;9904;52.246;20.898;2023-06-26T11:14:21;8.05;;;3.63;;
19519;SDS011;9904;52.246;20.898;2023-06-26T11:16:48;5.78;;;3.25;;
19519;SDS011;9904;52.246;20.898;2023-06-26T11:19:18;6.90;;;3.97;;
19519;SDS011;9904;52.246;20.898;2023-06-26T11:21:46;6.90;;;3.50;;
19519;SDS011;9904;52.246;20.898;2023-06-26T11:24:13;7.90;;;3.10;;
19519;SDS011;9904;52.246;20.898;2023-06-26T11:29:07;5.28;;;2.80;;
19519;SDS011;9904;52.246;20.898;2023-06-26T11:31:38;6.33;;;3.37;;
19519;SDS011;9904;52.246;20.898;2023-06-26T11:34:06;5.32;;;3.05;;
19519;SDS011;9904;52.246;20.898;2023-06-26T11:36:38;7.43;;;3.40;;
19519;SDS011;9904;52.246;20.898;2023-06-26T11:39:08;4.95;;;3.30;;
19519;SDS011;9904;52.246;20.898;2023-06-26T11:41:36;5.00;;;2.80;;
19519;SDS011;9904;52.246;20.898;2023-06-26T11:44:03;4.05;;;2.80;;
19519;SDS011;9904;52.246;20.898;2023-06-26T11:46:32;6.60;;;3.03;;
19519;SDS011;9904;52.246;20.898;2023-06-26T11:49:02;7.45;;;3.30;;
19519;SDS011;9904;52.246;20.898;2023-06-26T11:51:33;3.88;;;2.70;;
19519;SDS011;9904;52.246;20.898;2023-06-26T11:54:01;5.93;;;3.00;;
19519;SDS011;9904;52.246;20.898;2023-06-26T11:56:29;7.72;;;3.40;;
19519;SDS011;9904;52.246;20.898;2023-06-26T11:59:03;11.50;;;3.63;;
19519;SDS011;9904;52.246;20.898;2023-06-26T12:01:43;5.78;;;3.10;;
19519;SDS011;9904;52.246;20.898;2023-06-26T12:04:11;5.35;;;3.00;;
19519;SDS011;9904;52.246;20.898;2023-06-26T12:06:40;4.95;;;2.92;;
19519;SDS011;9904;52.246;20.898;2023-06-26T12:09:18;8.48;;;3.03;;
19519;SDS011;9904;52.246;20.898;2023-06-26T12:11:46;4.05;;;2.72;;
19519;SDS011;9904;52.246;20.898;2023-06-26T12:14:15;5.32;;;3.00;;
19519;SDS011;9904;52.246;20.898;2023-06-26T12:16:43;3.77;;;2.60;;
19519;SDS011;9904;52.246;20.898;2023-06-26T12:19:10;3.85;;;2.83;;
19519;SDS011;9904;52.246;20.898;2023-06-26T12:24:05;5.20;;;2.67;;
19519;SDS011;9904;52.246;20.898;2023-06-26T12:26:32;8.73;;;3.00;;
19519;SDS011;9904;52.246;20.898;2023-06-26T12:29:13;5.70;;;2.97;;
19519;SDS011;9904;52.246;20.898;2023-06-26T12:31:50;5.10;;;3.05;;
19519;SDS011;9904;52.246;20.898;2023-06-26T12:34:23;6.20;;;3.77;;
19519;SDS011;9904;52.246;20.898;2023-06-26T12:36:51;9.70;;;3.45;;
19519;SDS011;9904;52.246;20.898;2023-06-26T12:39:19;5.53;;;2.95;;
19519;SDS011;9904;52.246;20.898;2023-06-26T12:41:54;5.33;;;3.30;;
19519;SDS011;9904;52.246;20.898;2023-06-26T12:44:22;4.97;;;3.17;;
19519;SDS011;9904;52.246;20.898;2023-06-26T12:46:58;5.00;;;2.97;;
19519;SDS011;9904;52.246;20.898;2023-06-26T12:49:31;5.13;;;3.40;;
19519;SDS011;9904;52.246;20.898;2023-06-26T12:51:59;6.20;;;3.00;;
19519;SDS011;9904;52.246;20.898;2023-06-26T12:54:27;5.40;;;3.00;;
19519;SDS011;9904;52.246;20.898;2023-06-26T12:56:54;8.00;;;3.30;;
19519;SDS011;9904;52.246;20.898;2023-06-26T12:59:21;5.30;;;3.13;;
19519;SDS011;9904;52.246;20.898;2023-06-26T13:01:47;4.55;;;3.20;;
19519;SDS011;9904;52.246;20.898;2023-06-26T13:04:14;7.63;;;3.20;;
19519;SDS011;9904;52.246;20.898;2023-06-26T13:06:41;3.60;;;2.67;;
19519;SDS011;9904;52.246;20.898;2023-06-26T13:09:08;6.40;;;3.07;;
19519;SDS011;9904;52.246;20.898;2023-06-26T13:11:36;5.10;;;3.00;;
19519;SDS011;9904;52.246;20.898;2023-06-26T13:14:03;5.73;;;2.80;;
19519;SDS011;9904;52.246;20.898;2023-06-26T13:16:37;6.07;;;3.03;;
19519;SDS011;9904;52.246;20.898;2023-06-26T13:19:03;8.40;;;3.40;;
19519;SDS011;9904;52.246;20.898;2023-06-26T13:21:30;4.10;;;2.80;;
19519;SDS011;9904;52.246;20.898;2023-06-26T13:23:57;5.90;;;3.47;;
19519;SDS011;9904;52.246;20.898;2023-06-26T13:26:24;4.97;;;3.20;;
19519;SDS011;9904;52.246;20.898;2023-06-26T13:29:02;4.47;;;3.00;;
19519;SDS011;9904;52.246;20.898;2023-06-26T13:31:29;5.72;;;3.33;;
19519;SDS011;9904;52.246;20.898;2023-06-26T13:33:59;6.00;;;3.67;;
19519;SDS011;9904;52.246;20.898;2023-06-26T13:36:26;5.88;;;3.00;;
19519;SDS011;9904;52.246;20.898;2023-06-26T13:38:52;5.13;;;3.33;;
19519;SDS011;9904;52.246;20.898;2023-06-26T13:41:22;9.40;;;3.30;;
19519;SDS011;9904;52.246;20.898;2023-06-26T13:43:49;4.57;;;3.17;;
19519;SDS011;9904;52.246;20.898;2023-06-26T13:46:16;7.07;;;3.28;;
19519;SDS011;9904;52.246;20.898;2023-06-26T13:48:44;5.80;;;2.88;;
19519;SDS011;9904;52.246;20.898;2023-06-26T13:51:11;6.97;;;3.40;;
19519;SDS011;9904;52.246;20.898;2023-06-26T13:53:38;5.90;;;3.53;;
19519;SDS011;9904;52.246;20.898;2023-06-26T13:56:05;4.55;;;3.10;;
19519;SDS011;9904;52.246;20.898;2023-06-26T13:58:34;4.43;;;2.90;;
19519;SDS011;9904;52.246;20.898;2023-06-26T14:01:01;5.55;;;3.30;;
19519;SDS011;9904;52.246;20.898;2023-06-26T14:03:29;5.45;;;3.15;;
19519;SDS011;9904;52.246;20.898;2023-06-26T14:05:55;4.13;;;2.70;;
19519;SDS011;9904;52.246;20.898;2023-06-26T14:08:22;4.53;;;2.80;;
19519;SDS011;9904;52.246;20.898;2023-06-26T14:10:49;6.30;;;2.90;;
19519;SDS011;9904;52.246;20.898;2023-06-26T14:13:16;4.40;;;2.80;;
19519;SDS011;9904;52.246;20.898;2023-06-26T14:15:43;5.97;;;3.70;;
19519;SDS011;9904;52.246;20.898;2023-06-26T14:18:10;10.50;;;3.40;;
19519;SDS011;9904;52.246;20.898;2023-06-26T14:20:37;14.20;;;3.57;;
19519;SDS011;9904;52.246;20.898;2023-06-26T14:23:04;8.10;;;2.85;;
19519;SDS011;9904;52.246;20.898;2023-06-26T14:25:31;5.88;;;2.80;;
19519;SDS011;9904;52.246;20.898;2023-06-26T14:27:57;6.72;;;3.10;;
19519;SDS011;9904;52.246;20.898;2023-06-26T14:30:24;7.28;;;3.33;;
19519;SDS011;9904;52.246;20.898;2023-06-26T14:32:51;5.20;;;3.30;;
19519;SDS011;9904;52.246;20.898;2023-06-26T14:35:18;4.20;;;3.00;;
19519;SDS011;9904;52.246;20.898;2023-06-26T14:37:45;5.72;;;3.10;;
19519;SDS011;9904;52.246;20.898;2023-06-26T14:40:11;6.80;;;3.22;;
19519;SDS011;9904;52.246;20.898;2023-06-26T14:42:39;3.83;;;2.87;;
19519;SDS011;9904;52.246;20.898;2023-06-26T14:45:06;3.53;;;2.53;;
19519;SDS011;9904;52.246;20.898;2023-06-26T14:47:33;7.38;;;3.05;;
19519;SDS011;9904;52.246;20.898;2023-06-26T14:50:00;6.15;;;3.10;;
19519;SDS011;9904;52.246;20.898;2023-06-26T14:52:27;4.72;;;2.75;;
19519;SDS011;9904;52.246;20.898;2023-06-26T14:54:54;6.45;;;2.95;;
19519;SDS011;9904;52.246;20.898;2023-06-26T14:57:20;3.87;;;2.60;;
19519;SDS011;9904;52.246;20.898;2023-06-26T14:59:47;4.18;;;2.75;;
19519;SDS011;9904;52.246;20.898;2023-06-26T15:02:14;3.90;;;2.90;;